createdAt,value
2023-03-29T00:01:00.770Z,0.90
2023-03-29T00:03:30.986Z,1.20
2023-03-29T00:06:03.333Z,1.40
2023-03-29T00:08:52.611Z,1.30
2023-03-29T00:11:25.227Z,1.30
2023-03-29T00:13:54.066Z,1.50
2023-03-29T00:16:25.571Z,1.40
2023-03-29T00:18:55.965Z,1.50
2023-03-29T00:21:24.960Z,1.50
2023-03-29T00:23:57.803Z,1.40
2023-03-29T00:26:28.975Z,1.60
2023-03-29T00:29:00.386Z,1.60
2023-03-29T00:32:00.115Z,1.40
2023-03-29T00:34:31.931Z,1.20
2023-03-29T00:37:04.616Z,1.70
2023-03-29T00:39:42.168Z,1.30
2023-03-29T00:42:20.388Z,1.40
2023-03-29T00:45:38.299Z,1.70
2023-03-29T00:48:15.489Z,1.30
2023-03-29T00:50:52.845Z,1.90
2023-03-29T00:53:33.561Z,2.00
2023-03-29T00:56:11.975Z,1.50
2023-03-29T00:59:01.887Z,1.30
2023-03-29T01:01:34.409Z,1.90
2023-03-29T01:04:23.858Z,1.20
2023-03-29T01:07:21.692Z,1.30
2023-03-29T01:10:00.916Z,1.90
2023-03-29T01:12:36.490Z,1.40
2023-03-29T01:15:06.346Z,1.80
2023-03-29T01:17:36.728Z,1.30
2023-03-29T01:20:13.092Z,1.90
2023-03-29T01:23:03.328Z,1.80
2023-03-29T01:25:59.012Z,1.70
2023-03-29T01:28:29.230Z,1.90
2023-03-29T01:31:06.410Z,2.10
2023-03-29T01:33:44.590Z,1.80
2023-03-29T01:36:17.886Z,1.90
2023-03-29T01:39:04.658Z,1.30
2023-03-29T01:42:06.975Z,1.30
2023-03-29T01:45:04.366Z,1.50
2023-03-29T01:47:45.883Z,1.60
2023-03-29T01:50:19.759Z,1.70
2023-03-29T01:53:02.260Z,2.00
2023-03-29T01:55:38.614Z,1.50
2023-03-29T01:58:14.074Z,2.00
2023-03-29T02:00:44.691Z,1.80
2023-03-29T02:03:21.711Z,2.00
2023-03-29T02:05:54.778Z,2.10
2023-03-29T02:08:25.246Z,2.00
2023-03-29T02:10:58.849Z,1.90
2023-03-29T02:13:36.414Z,1.90
2023-03-29T02:16:32.652Z,1.40
2023-03-29T02:19:02.444Z,2.00
2023-03-29T02:21:36.766Z,1.40
2023-03-29T02:24:08.683Z,1.60
2023-03-29T02:26:39.272Z,1.60
2023-03-29T02:29:09.867Z,1.40
2023-03-29T02:31:49.393Z,1.40
2023-03-29T02:34:37.962Z,1.60
2023-03-29T02:37:15.017Z,1.90
2023-03-29T02:39:50.076Z,1.80
2023-03-29T02:42:19.979Z,1.70
2023-03-29T02:44:50.328Z,1.60
2023-03-29T02:47:32.174Z,1.80
2023-03-29T02:50:17.027Z,1.60
2023-03-29T02:53:09.096Z,1.70
2023-03-29T02:55:42.413Z,1.30
2023-03-29T02:58:19.028Z,1.40
2023-03-29T03:00:48.857Z,1.60
2023-03-29T03:03:17.248Z,1.40
2023-03-29T03:05:50.309Z,1.50
2023-03-29T03:08:24.608Z,1.20
2023-03-29T03:10:53.661Z,1.40
2023-03-29T03:13:25.514Z,1.60
2023-03-29T03:16:00.670Z,1.40
2023-03-29T03:18:35.747Z,1.60
2023-03-29T03:21:09.494Z,1.40
2023-03-29T03:23:39.903Z,1.20
2023-03-29T03:26:11.952Z,1.30
2023-03-29T03:28:43.329Z,1.50
2023-03-29T03:31:21.009Z,1.50
2023-03-29T03:34:27.293Z,1.60
2023-03-29T03:37:01.298Z,1.30
2023-03-29T03:39:33.808Z,1.50
2023-03-29T03:42:08.346Z,2.90
2023-03-29T03:44:48.066Z,1.40
2023-03-29T03:47:41.853Z,1.40
2023-03-29T03:50:33.303Z,1.20
2023-03-29T03:53:02.505Z,1.70
2023-03-29T03:55:57.474Z,1.10
2023-03-29T03:59:01.655Z,1.40
2023-03-29T04:01:35.435Z,1.80
2023-03-29T04:04:19.071Z,1.40
2023-03-29T04:07:09.726Z,1.70
2023-03-29T04:10:25.715Z,1.00
2023-03-29T04:13:02.735Z,1.50
2023-03-29T04:15:54.498Z,1.60
2023-03-29T04:18:39.451Z,1.30
2023-03-29T04:21:41.404Z,1.20
2023-03-29T04:24:18.994Z,2.00
2023-03-29T04:27:07.453Z,1.60
2023-03-29T04:30:06.095Z,1.40
2023-03-29T04:33:14.922Z,1.70
2023-03-29T04:35:50.705Z,1.70
2023-03-29T04:38:24.242Z,1.50
2023-03-29T04:41:08.245Z,1.60
2023-03-29T04:44:28.558Z,1.20
2023-03-29T04:47:01.418Z,1.60
2023-03-29T04:50:04.962Z,1.60
2023-03-29T04:53:04.055Z,1.50
2023-03-29T04:55:39.777Z,1.90
2023-03-29T04:58:20.727Z,2.00
2023-03-29T05:01:13.801Z,1.80
2023-03-29T05:08:11.113Z,1.60
2023-03-29T05:11:32.048Z,1.60
2023-03-29T05:14:11.435Z,1.30
2023-03-29T05:16:51.749Z,2.10
2023-03-29T05:19:24.866Z,2.10
2023-03-29T05:22:12.993Z,1.90
2023-03-29T05:24:56.904Z,1.70
2023-03-29T05:27:35.872Z,1.90
2023-03-29T05:30:35.896Z,1.80
2023-03-29T05:33:25.649Z,1.80
2023-03-29T05:36:21.641Z,1.90
2023-03-29T05:47:27.116Z,2.10
2023-03-29T05:50:03.488Z,2.20
2023-03-29T05:53:11.825Z,1.70
2023-03-29T05:56:33.594Z,2.00
2023-03-29T05:59:49.373Z,2.30
2023-03-29T06:02:49.023Z,1.50
2023-03-29T06:05:22.767Z,1.80
2023-03-29T06:08:35.885Z,1.90
2023-03-29T06:11:17.780Z,2.70
2023-03-29T06:15:14.540Z,2.20
2023-03-29T06:18:00.653Z,1.70
2023-03-29T06:20:34.268Z,2.30
2023-03-29T06:23:33.579Z,2.10
2023-03-29T06:26:24.316Z,2.10
2023-03-29T06:29:08.667Z,2.50
2023-03-29T06:31:43.869Z,2.40
2023-03-29T06:35:48.317Z,2.20
2023-03-29T06:47:05.567Z,2.30
2023-03-29T06:50:07.047Z,3.40
2023-03-29T06:57:39.487Z,2.60
2023-03-29T07:00:38.479Z,2.80
2023-03-29T07:03:23.094Z,2.20
2023-03-29T07:06:17.638Z,1.90
2023-03-29T07:09:02.051Z,2.70
2023-03-29T07:12:53.913Z,2.70
2023-03-29T07:15:28.904Z,2.30
2023-03-29T07:19:05.485Z,1.80
2023-03-29T07:22:21.592Z,2.10
2023-03-29T07:25:21.070Z,1.60
2023-03-29T07:28:28.552Z,1.70
2023-03-29T07:31:14.355Z,2.10
2023-03-29T07:34:14.516Z,1.80
2023-03-29T07:37:32.373Z,2.80
2023-03-29T07:40:24.434Z,2.70
2023-03-29T07:43:36.440Z,2.30
2023-03-29T07:46:14.872Z,2.10
2023-03-29T07:48:57.012Z,1.80
2023-03-29T07:51:55.331Z,1.60
2023-03-29T07:54:39.779Z,2.00
2023-03-29T07:57:28.739Z,2.40
2023-03-29T08:00:20.178Z,3.10
2023-03-29T08:03:07.270Z,3.20
2023-03-29T08:05:41.927Z,2.40
2023-03-29T08:09:01.062Z,2.00
2023-03-29T08:11:39.753Z,2.30
2023-03-29T08:14:29.753Z,1.80
2023-03-29T08:17:42.808Z,2.20
2023-03-29T08:20:17.517Z,2.10
2023-03-29T08:22:54.815Z,2.10
2023-03-29T08:26:00.290Z,1.90
2023-03-29T08:28:46.321Z,1.60
2023-03-29T08:31:20.506Z,2.00
2023-03-29T08:33:56.143Z,1.60
2023-03-29T08:36:59.253Z,2.10
2023-03-29T08:39:50.638Z,1.80
2023-03-29T08:43:17.547Z,2.20
2023-03-29T08:46:47.506Z,1.70
2023-03-29T08:49:32.168Z,2.30
2023-03-29T08:52:07.509Z,2.30
2023-03-29T08:54:52.268Z,1.80
2023-03-29T08:57:46.570Z,2.20
2023-03-29T09:03:43.791Z,2.20
2023-03-29T09:06:33.600Z,2.20
2023-03-29T09:09:41.862Z,2.50
2023-03-29T09:13:02.933Z,3.00
2023-03-29T09:16:16.467Z,2.20
2023-03-29T09:19:07.681Z,2.30
2023-03-29T09:22:29.773Z,2.70
2023-03-29T09:25:58.142Z,2.90
2023-03-29T09:28:44.769Z,3.10
2023-03-29T09:31:54.102Z,2.70
2023-03-29T09:34:39.998Z,2.20
2023-03-29T09:37:46.015Z,2.50
2023-03-29T09:40:47.047Z,2.10
2023-03-29T09:43:32.008Z,1.90
2023-03-29T09:46:29.692Z,2.10
2023-03-29T09:49:01.701Z,2.10
2023-03-29T09:52:22.349Z,2.30
2023-03-29T09:55:26.470Z,2.30
2023-03-29T09:58:32.719Z,2.30
2023-03-29T10:01:22.443Z,2.40
2023-03-29T10:03:55.252Z,2.90
2023-03-29T10:06:29.359Z,2.50
2023-03-29T10:09:22.011Z,1.80
2023-03-29T10:14:47.261Z,1.80
2023-03-29T10:17:48.042Z,2.30
2023-03-29T10:20:53.268Z,2.20
2023-03-29T10:23:36.514Z,2.20
2023-03-29T10:26:51.562Z,2.80
2023-03-29T10:29:35.883Z,2.90
2023-03-29T10:33:01.880Z,2.10
2023-03-29T10:35:47.219Z,2.50
2023-03-29T10:38:20.455Z,2.60
2023-03-29T10:41:25.956Z,2.70
2023-03-29T10:43:59.816Z,2.20
2023-03-29T10:46:44.736Z,2.20
2023-03-29T10:50:21.425Z,2.40
2023-03-29T10:54:02.528Z,2.40
2023-03-29T10:56:59.664Z,2.10
2023-03-29T10:59:33.955Z,2.10
2023-03-29T11:02:49.360Z,2.00
2023-03-29T11:05:38.914Z,2.20
2023-03-29T11:08:39.316Z,2.10
2023-03-29T11:12:21.429Z,2.10
2023-03-29T11:16:05.050Z,2.60
2023-03-29T11:19:09.056Z,3.00
2023-03-29T11:22:23.251Z,2.60
2023-03-29T11:29:15.713Z,2.00
2023-03-29T11:32:09.973Z,2.00
2023-03-29T11:35:49.468Z,2.10
2023-03-29T11:38:37.805Z,2.30
2023-03-29T11:41:42.415Z,2.10
2023-03-29T11:44:29.664Z,2.50
2023-03-29T11:47:38.594Z,3.00
2023-03-29T11:50:27.710Z,1.90
2023-03-29T11:53:34.175Z,2.00
2023-03-29T11:56:15.797Z,3.00
2023-03-29T11:58:50.449Z,2.80
2023-03-29T12:02:06.085Z,3.70
2023-03-29T12:05:03.089Z,3.00
2023-03-29T12:07:45.569Z,2.90
2023-03-29T12:10:33.686Z,2.20
2023-03-29T12:13:08.164Z,2.10
2023-03-29T12:15:53.864Z,2.90
2023-03-29T12:23:18.646Z,2.00
2023-03-29T12:30:46.714Z,1.80
2023-03-29T12:33:45.041Z,2.30
2023-03-29T12:37:07.172Z,2.50
2023-03-29T12:40:41.777Z,2.00
2023-03-29T12:43:36.886Z,1.70
2023-03-29T12:46:25.803Z,1.90
2023-03-29T12:49:21.979Z,1.60
2023-03-29T12:53:10.554Z,2.20
2023-03-29T12:56:14.524Z,1.60
2023-03-29T12:59:11.067Z,1.60
2023-03-29T13:01:59.761Z,2.00
2023-03-29T13:04:57.989Z,2.70
2023-03-29T13:07:31.624Z,2.60
2023-03-29T13:10:38.480Z,2.50
2023-03-29T13:13:57.854Z,2.50
2023-03-29T13:16:34.190Z,2.20
2023-03-29T13:19:48.307Z,2.00
2023-03-29T13:23:21.136Z,3.20
2023-03-29T13:25:59.197Z,1.70
2023-03-29T13:28:52.096Z,1.90
2023-03-29T13:37:05.740Z,3.80
2023-03-29T13:41:00.798Z,3.00
2023-03-29T13:43:54.887Z,2.60
2023-03-29T13:46:46.643Z,2.80
2023-03-29T13:49:30.381Z,2.30
2023-03-29T13:52:48.466Z,4.00
2023-03-29T13:56:03.114Z,2.00
2023-03-29T13:58:46.328Z,2.20
2023-03-29T14:02:08.296Z,2.00
2023-03-29T14:05:02.155Z,2.50
2023-03-29T14:08:02.000Z,2.60
2023-03-29T14:10:44.163Z,2.00
2023-03-29T14:13:27.555Z,2.30
2023-03-29T14:16:27.962Z,2.50
2023-03-29T14:19:03.241Z,3.30
2023-03-29T14:22:22.140Z,2.40
2023-03-29T14:25:25.276Z,3.10
2023-03-29T14:28:29.094Z,2.70
2023-03-29T14:31:09.071Z,3.40
2023-03-29T14:34:08.475Z,2.60
2023-03-29T14:37:36.095Z,3.10
2023-03-29T14:40:30.485Z,3.10
2023-03-29T14:43:13.571Z,3.40
2023-03-29T14:46:28.218Z,2.60
2023-03-29T14:54:14.283Z,3.20
2023-03-29T14:57:16.307Z,2.30
2023-03-29T15:01:09.713Z,3.10
2023-03-29T15:04:08.321Z,2.70
2023-03-29T15:06:54.662Z,3.50
2023-03-29T15:10:25.328Z,2.80
2023-03-29T15:13:31.830Z,3.70
2023-03-29T15:16:24.127Z,4.00
2023-03-29T15:19:12.933Z,5.80
2023-03-29T15:21:51.203Z,2.70
2023-03-29T15:24:36.912Z,6.10
2023-03-29T15:27:43.604Z,4.00
2023-03-29T15:30:42.482Z,2.40
2023-03-29T15:33:32.704Z,2.30
2023-03-29T15:36:09.641Z,2.60
2023-03-29T15:38:45.123Z,2.20
2023-03-29T15:41:18.352Z,3.00
2023-03-29T15:43:49.492Z,3.90
2023-03-29T15:46:20.917Z,3.70
2023-03-29T15:48:53.616Z,3.30
2023-03-29T15:51:29.506Z,3.70
2023-03-29T15:57:49.551Z,2.90
2023-03-29T16:01:17.697Z,3.10
2023-03-29T16:04:15.396Z,3.10
2023-03-29T16:07:14.340Z,3.60
2023-03-29T16:09:58.004Z,2.90
2023-03-29T16:13:32.460Z,2.50
2023-03-29T16:16:08.924Z,2.60
2023-03-29T16:18:59.319Z,3.00
2023-03-29T16:22:03.167Z,2.30
2023-03-29T16:27:30.946Z,2.80
2023-03-29T16:31:20.929Z,2.90
2023-03-29T16:34:02.845Z,2.80
2023-03-29T16:36:38.455Z,3.10
2023-03-29T16:39:14.041Z,3.80
2023-03-29T16:41:50.604Z,3.80
2023-03-29T16:44:29.157Z,3.70
2023-03-29T16:47:08.436Z,3.00
2023-03-29T16:50:09.822Z,2.60
2023-03-29T16:52:52.828Z,2.80
2023-03-29T16:55:28.697Z,3.10
2023-03-29T16:58:23.346Z,2.40
2023-03-29T17:01:27.311Z,3.50
2023-03-29T17:04:24.681Z,3.30
2023-03-29T17:07:01.379Z,2.90
2023-03-29T17:09:54.321Z,4.60
2023-03-29T17:12:30.818Z,2.70
2023-03-29T17:15:01.172Z,2.80
2023-03-29T17:17:43.722Z,6.80
2023-03-29T17:20:45.623Z,2.60
2023-03-29T17:23:18.057Z,3.60
2023-03-29T17:25:59.654Z,2.70
2023-03-29T17:28:49.254Z,4.00
2023-03-29T17:31:23.828Z,3.80
2023-03-29T17:34:08.109Z,2.30
2023-03-29T17:36:41.116Z,3.20
2023-03-29T17:46:42.802Z,2.80
2023-03-29T17:50:04.150Z,2.80
2023-03-29T17:53:04.164Z,2.10
2023-03-29T17:56:25.245Z,3.10
2023-03-29T18:00:04.072Z,2.50
2023-03-29T18:03:15.693Z,2.60
2023-03-29T18:05:53.615Z,2.80
2023-03-29T18:08:29.999Z,2.50
2023-03-29T18:11:13.741Z,4.10
2023-03-29T18:14:13.651Z,3.00
2023-03-29T18:16:51.247Z,2.80
2023-03-29T18:19:23.857Z,2.20
2023-03-29T18:21:58.314Z,2.30
2023-03-29T18:24:33.353Z,2.20
2023-03-29T18:27:32.494Z,1.50
2023-03-29T18:30:20.156Z,2.50
2023-03-29T18:33:01.666Z,2.70
2023-03-29T18:35:49.050Z,2.30
2023-03-29T18:38:37.740Z,2.50
2023-03-29T18:41:18.108Z,2.10
2023-03-29T18:44:21.971Z,2.50
2023-03-29T18:47:12.059Z,2.40
2023-03-29T18:49:52.009Z,2.30
2023-03-29T18:52:52.473Z,2.70
2023-03-29T18:56:08.543Z,2.10
2023-03-29T18:59:03.582Z,2.30
2023-03-29T19:02:21.558Z,2.30
2023-03-29T19:05:19.060Z,3.30
2023-03-29T19:08:38.099Z,2.00
2023-03-29T19:11:18.742Z,2.60
2023-03-29T19:14:34.699Z,2.20
2023-03-29T19:17:14.139Z,2.00
2023-03-29T19:19:56.114Z,2.50
2023-03-29T19:22:34.934Z,2.60
2023-03-29T19:25:40.060Z,2.00
2023-03-29T19:28:21.959Z,2.50
2023-03-29T19:31:12.590Z,2.70
2023-03-29T19:33:58.272Z,2.70
2023-03-29T19:36:42.647Z,2.60
2023-03-29T19:46:05.468Z,2.30
2023-03-29T19:49:48.574Z,2.50
2023-03-29T19:52:23.455Z,2.30
2023-03-29T19:55:12.808Z,2.00
2023-03-29T19:58:19.620Z,2.50
2023-03-29T20:01:01.561Z,2.60
2023-03-29T20:03:35.082Z,2.60
2023-03-29T20:08:49.344Z,2.80
2023-03-29T20:11:49.466Z,1.90
2023-03-29T20:14:34.833Z,2.30
2023-03-29T20:17:18.587Z,2.70
2023-03-29T20:19:55.220Z,2.30
2023-03-29T20:22:32.341Z,2.80
2023-03-29T20:25:20.720Z,3.40
2023-03-29T20:27:53.825Z,2.40
2023-03-29T20:30:29.694Z,2.50
2023-03-29T20:33:02.404Z,2.60
2023-03-29T20:35:35.492Z,2.10
2023-03-29T20:38:11.861Z,2.90
2023-03-29T20:40:44.776Z,2.40
2023-03-29T20:43:40.957Z,2.70
2023-03-29T20:46:31.923Z,1.80
2023-03-29T20:49:06.947Z,2.20
2023-03-29T20:52:00.471Z,2.70
2023-03-29T20:54:36.499Z,2.50
2023-03-29T20:57:11.930Z,2.50
2023-03-29T21:00:16.224Z,2.90
2023-03-29T21:02:49.607Z,2.70
2023-03-29T21:05:30.006Z,3.50
2023-03-29T21:08:08.157Z,2.40
2023-03-29T21:10:37.228Z,2.40
2023-03-29T21:13:12.850Z,2.70
2023-03-29T21:15:46.496Z,2.90
2023-03-29T21:18:24.276Z,2.80
2023-03-29T21:20:57.250Z,2.90
2023-03-29T21:23:26.284Z,3.30
2023-03-29T21:25:56.152Z,3.10
2023-03-29T21:28:30.914Z,3.40
2023-03-29T21:31:00.499Z,3.10
2023-03-29T21:33:35.784Z,2.40
2023-03-29T21:36:07.871Z,2.80
2023-03-29T21:38:46.937Z,2.60
2023-03-29T21:41:18.557Z,2.50
2023-03-29T21:43:51.027Z,2.90
2023-03-29T21:46:22.160Z,2.80
2023-03-29T21:48:55.090Z,2.40
2023-03-29T21:51:24.698Z,2.70
2023-03-29T21:53:54.651Z,2.90
2023-03-29T21:56:23.311Z,2.50
2023-03-29T21:58:53.402Z,3.20
2023-03-29T22:01:24.941Z,2.50
2023-03-29T22:03:57.224Z,2.80
2023-03-29T22:06:29.428Z,3.10
2023-03-29T22:09:01.294Z,3.00
2023-03-29T22:11:34.451Z,3.00
2023-03-29T22:14:04.710Z,2.80
2023-03-29T22:16:39.165Z,2.30
2023-03-29T22:24:35.331Z,3.30
2023-03-29T22:27:07.621Z,2.80
2023-03-29T22:32:11.796Z,2.70
2023-03-29T22:34:44.103Z,2.20
2023-03-29T22:37:18.493Z,2.10
2023-03-29T22:39:47.325Z,2.10
2023-03-29T22:42:16.873Z,2.70
2023-03-29T22:44:51.042Z,3.10
2023-03-29T22:47:23.054Z,2.20
2023-03-29T22:49:53.382Z,2.40
2023-03-29T22:52:23.065Z,2.30
2023-03-29T22:54:58.089Z,2.50
2023-03-29T22:57:30.318Z,2.40
2023-03-29T23:00:03.909Z,3.30
2023-03-29T23:02:34.374Z,2.20
2023-03-29T23:05:04.280Z,2.40
2023-03-29T23:07:36.025Z,2.90
2023-03-29T23:10:09.504Z,2.50
2023-03-29T23:12:43.260Z,2.40
2023-03-29T23:15:17.978Z,2.30
2023-03-29T23:17:50.373Z,2.30
2023-03-29T23:20:20.969Z,2.60
2023-03-29T23:22:52.602Z,2.10
2023-03-29T23:25:29.523Z,2.80
2023-03-29T23:27:57.601Z,2.20
2023-03-29T23:30:32.033Z,2.60
2023-03-29T23:33:04.439Z,3.00
2023-03-29T23:35:36.360Z,3.10
2023-03-29T23:38:05.578Z,4.10
2023-03-29T23:40:36.015Z,2.80
2023-03-29T23:43:09.148Z,3.10
2023-03-29T23:45:38.384Z,2.80
2023-03-29T23:48:09.551Z,3.00
2023-03-29T23:50:38.104Z,3.20
2023-03-29T23:53:06.303Z,1.70
2023-03-29T23:55:35.456Z,1.40
2023-03-29T23:58:03.452Z,2.10
